Weather at Arusha Airport

Public forecast

Using degrees Celsius for public forecast. Weather courtesy of forecast.io.

Current aviation weather report (METAR) for Arusha Airport

Retrieved 2020/10/19 14:00 UTC (57 minutes ago):

HTAR 191400Z 12010KT 9999 BKN039 27/13 Q1016NOSIG

Aviation forecast (TAF) for Arusha Airport

Retrieved 2020/10/19 12:03 UTC (3 hours ago):

TAF HTAR 191100Z 1912/2012 10010KT 9999 BKN038 BECMG 1916/1919 SCT026